Time;durP1;ratioP1;P1;durP2;ratioP2;P2;SDS_P1;SDS_P2;PMS_P1;PMS_P2;Temp;Humidity;BMP_temperature;BMP_pressure;BME280_temperature;BME280_humidity;BME280_pressure;Samples;Min_cycle;Max_cycle;Signal;HPM_P1;HPM_P2
2022/01/13 00:02:26;;;;;;;3.13;1.83;;;;;;;;;;5063002;28;20211;-75
2022/01/13 00:05:13;;;;;;;3.20;2.00;;;;;;;;;;5064429;28;20220;-75
2022/01/13 00:08:00;;;;;;;3.50;2.10;;;;;;;;;;5058164;28;20282;-75
2022/01/13 00:10:47;;;;;;;3.70;2.20;;;;;;;;;;5062908;28;20357;-75
2022/01/13 00:13:46;;;;;;;4.30;2.00;;;;;;;;;;5063260;28;20234;-75
2022/01/13 00:16:41;;;;;;;3.03;2.20;;;;;;;;;;5060677;28;20675;-75
2022/01/13 00:19:35;;;;;;;3.33;1.83;;;;;;;;;;5062079;28;20242;-75
2022/01/13 00:22:37;;;;;;;3.43;2.00;;;;;;;;;;5062477;28;20219;-75
2022/01/13 00:25:25;;;;;;;2.47;1.70;;;;;;;;;;5058222;28;20228;-75
2022/01/13 00:28:17;;;;;;;3.17;1.90;;;;;;;;;;5062914;28;20314;-75
2022/01/13 00:31:06;;;;;;;2.30;2.10;;;;;;;;;;5062064;28;20323;-75
2022/01/13 00:33:55;;;;;;;4.07;2.07;;;;;;;;;;5065152;28;20261;-75
2022/01/13 00:36:42;;;;;;;2.50;1.97;;;;;;;;;;5064965;28;20237;-75
2022/01/13 00:39:30;;;;;;;3.43;2.00;;;;;;;;;;5066388;28;20204;-76
2022/01/13 00:42:17;;;;;;;2.83;1.40;;;;;;;;;;5066547;28;20216;-74
2022/01/13 00:45:05;;;;;;;2.93;2.03;;;;;;;;;;5059802;28;20238;-74
2022/01/13 00:47:52;;;;;;;3.27;1.70;;;;;;;;;;5063881;28;20369;-74
2022/01/13 00:50:40;;;;;;;3.37;1.63;;;;;;;;;;5064816;28;20714;-74
2022/01/13 00:53:28;;;;;;;2.37;1.80;;;;;;;;;;5063706;28;20699;-72
2022/01/13 00:56:15;;;;;;;3.07;1.83;;;;;;;;;;5066720;28;20667;-74
2022/01/13 00:59:03;;;;;;;3.80;1.60;;;;;;;;;;5062466;28;20211;-74
2022/01/13 01:01:52;;;;;;;2.27;1.73;;;;;;;;;;5064462;28;20312;-74
2022/01/13 01:04:39;;;;;;;2.50;1.70;;;;;;;;;;5064635;28;20763;-73
2022/01/13 01:07:27;;;;;;;1.70;1.60;;;;;;;;;;5060459;28;20232;-74
2022/01/13 01:10:14;;;;;;;3.90;2.20;;;;;;;;;;5065121;28;20288;-74
2022/01/13 01:13:10;;;;;;;2.73;2.00;;;;;;;;;;5064673;28;20266;-74
2022/01/13 01:16:00;;;;;;;3.03;1.90;;;;;;;;;;5066751;28;20295;-74
2022/01/13 01:18:55;;;;;;;2.57;1.90;;;;;;;;;;5065303;28;20218;-74
2022/01/13 01:27:53;;;;;;;2.83;1.90;;;;;;;;;;5063344;28;20231;-74
2022/01/13 01:30:43;;;;;;;3.17;1.90;;;;;;;;;;5065610;28;20203;-74
2022/01/13 01:33:30;;;;;;;2.80;1.80;;;;;;;;;;5065477;28;20282;-74
2022/01/13 01:36:18;;;;;;;3.53;2.37;;;;;;;;;;5064467;28;20204;-74
2022/01/13 01:39:07;;;;;;;2.30;1.80;;;;;;;;;;5064592;28;20251;-74
2022/01/13 01:41:57;;;;;;;2.20;1.43;;;;;;;;;;5061975;28;20577;-71
2022/01/13 01:44:46;;;;;;;2.40;1.90;;;;;;;;;;5062956;28;20652;-74
2022/01/13 01:47:33;;;;;;;2.87;1.70;;;;;;;;;;5066597;28;20230;-74
2022/01/13 01:50:23;;;;;;;2.33;1.67;;;;;;;;;;5063937;28;20584;-74
2022/01/13 01:53:10;;;;;;;3.17;2.00;;;;;;;;;;5064689;28;20200;-74
2022/01/13 01:55:57;;;;;;;3.20;2.00;;;;;;;;;;5061939;28;20290;-74
2022/01/13 01:58:46;;;;;;;3.53;2.17;;;;;;;;;;5064914;28;20299;-73
2022/01/13 02:01:33;;;;;;;2.67;1.97;;;;;;;;;;5065377;28;20825;-67
2022/01/13 02:04:22;;;;;;;2.37;1.93;;;;;;;;;;5064988;28;20302;-68
2022/01/13 02:07:10;;;;;;;2.33;1.83;;;;;;;;;;5065164;28;20227;-67
2022/01/13 02:09:57;;;;;;;2.57;1.90;;;;;;;;;;5066905;28;20307;-67
2022/01/13 02:12:48;;;;;;;2.27;1.90;;;;;;;;;;5064196;28;20234;-67
2022/01/13 02:15:47;;;;;;;2.40;2.00;;;;;;;;;;5065591;28;20211;-67
2022/01/13 02:18:34;;;;;;;3.30;1.80;;;;;;;;;;5062956;28;20199;-67
2022/01/13 02:21:25;;;;;;;2.33;1.67;;;;;;;;;;5066263;28;20281;-67
2022/01/13 02:24:12;;;;;;;3.13;1.70;;;;;;;;;;5063583;28;20679;-67
2022/01/13 02:26:59;;;;;;;3.17;2.23;;;;;;;;;;5061670;28;20288;-67
2022/01/13 02:29:46;;;;;;;2.70;1.80;;;;;;;;;;5065590;28;20238;-67
2022/01/13 02:32:33;;;;;;;3.40;1.70;;;;;;;;;;5057904;28;20340;-67
2022/01/13 02:35:20;;;;;;;3.17;1.97;;;;;;;;;;5064318;28;20567;-68
2022/01/13 02:38:12;;;;;;;1.70;1.60;;;;;;;;;;5061808;28;20293;-67
2022/01/13 02:41:00;;;;;;;2.60;1.97;;;;;;;;;;5062850;28;20294;-67
2022/01/13 02:43:47;;;;;;;3.73;1.80;;;;;;;;;;5062120;28;20207;-67
2022/01/13 02:46:56;;;;;;;1.90;1.70;;;;;;;;;;5064193;28;20207;-68
2022/01/13 02:49:43;;;;;;;2.70;1.93;;;;;;;;;;5062517;28;20209;-67
2022/01/13 02:52:30;;;;;;;3.03;2.30;;;;;;;;;;5063261;28;20693;-68
2022/01/13 02:55:18;;;;;;;2.70;1.60;;;;;;;;;;5062815;28;20231;-68
2022/01/13 02:58:05;;;;;;;3.10;2.07;;;;;;;;;;5063203;28;20288;-67
2022/01/13 03:00:52;;;;;;;2.43;1.90;;;;;;;;;;5067217;28;20224;-67
2022/01/13 03:03:40;;;;;;;2.27;1.93;;;;;;;;;;5064772;28;20273;-67
2022/01/13 03:06:33;;;;;;;3.17;2.13;;;;;;;;;;5062738;28;20233;-67
2022/01/13 03:09:21;;;;;;;3.00;1.83;;;;;;;;;;5061650;28;20236;-67
2022/01/13 03:12:10;;;;;;;3.70;2.13;;;;;;;;;;5063728;28;20572;-67
2022/01/13 03:14:57;;;;;;;2.53;1.67;;;;;;;;;;5061207;28;20277;-68
2022/01/13 03:17:44;;;;;;;2.67;2.00;;;;;;;;;;5061680;28;20215;-68
2022/01/13 03:20:31;;;;;;;3.63;1.90;;;;;;;;;;5059782;28;20203;-67
2022/01/13 03:23:19;;;;;;;2.97;2.00;;;;;;;;;;5062055;28;20281;-67
2022/01/13 03:26:06;;;;;;;3.33;2.00;;;;;;;;;;5063525;28;20294;-68
2022/01/13 03:29:05;;;;;;;2.40;1.80;;;;;;;;;;5063715;28;20718;-67
2022/01/13 03:31:52;;;;;;;3.33;2.10;;;;;;;;;;5063071;28;20294;-67
2022/01/13 03:34:39;;;;;;;2.90;2.13;;;;;;;;;;5060729;28;20302;-67
2022/01/13 03:37:26;;;;;;;4.47;2.10;;;;;;;;;;5065061;28;20680;-67
2022/01/13 03:40:13;;;;;;;2.87;2.20;;;;;;;;;;5065785;28;20311;-67
2022/01/13 03:43:01;;;;;;;2.77;1.80;;;;;;;;;;5064014;28;20259;-67
2022/01/13 03:45:50;;;;;;;3.43;1.90;;;;;;;;;;5062902;28;20196;-67
2022/01/13 03:48:37;;;;;;;2.47;1.90;;;;;;;;;;5062231;28;20226;-68
2022/01/13 03:51:24;;;;;;;4.17;1.80;;;;;;;;;;5062947;28;20341;-67
2022/01/13 03:54:58;;;;;;;3.57;2.47;;;;;;;;;;5064491;28;20215;-67
2022/01/13 03:58:19;;;;;;;4.13;2.00;;;;;;;;;;5061874;28;20199;-67
2022/01/13 04:01:48;;;;;;;4.10;2.13;;;;;;;;;;5060254;28;20851;-69
2022/01/13 04:04:39;;;;;;;3.17;2.17;;;;;;;;;;5062629;28;20266;-67
2022/01/13 04:07:27;;;;;;;2.57;2.03;;;;;;;;;;5065642;28;20297;-67
2022/01/13 04:10:52;;;;;;;2.73;1.87;;;;;;;;;;5065413;28;20325;-67
2022/01/13 04:13:50;;;;;;;3.37;1.63;;;;;;;;;;5055309;28;20674;-67
2022/01/13 04:16:37;;;;;;;3.70;2.40;;;;;;;;;;5063179;28;20207;-67
2022/01/13 04:19:24;;;;;;;3.40;2.00;;;;;;;;;;5069796;28;20204;-67
2022/01/13 04:22:13;;;;;;;2.77;1.90;;;;;;;;;;5067227;28;20203;-67
2022/01/13 04:25:00;;;;;;;2.83;2.13;;;;;;;;;;5065940;28;20701;-67
2022/01/13 04:27:48;;;;;;;3.20;1.83;;;;;;;;;;5065100;28;20250;-67
2022/01/13 04:33:42;;;;;;;3.43;1.80;;;;;;;;;;5068440;28;20234;-67
2022/01/13 04:36:29;;;;;;;2.97;1.73;;;;;;;;;;5065687;28;20209;-67
2022/01/13 04:39:17;;;;;;;2.93;1.80;;;;;;;;;;5065039;28;20264;-67
2022/01/13 04:42:07;;;;;;;2.97;2.10;;;;;;;;;;5064219;28;20281;-67
2022/01/13 04:44:54;;;;;;;3.17;2.30;;;;;;;;;;5067966;28;20207;-67
2022/01/13 04:47:41;;;;;;;4.63;2.00;;;;;;;;;;5064033;28;20693;-67
2022/01/13 04:50:29;;;;;;;3.77;2.17;;;;;;;;;;5067348;28;20284;-67
2022/01/13 04:53:16;;;;;;;2.60;1.73;;;;;;;;;;5064447;28;20214;-67
2022/01/13 04:56:10;;;;;;;3.80;2.23;;;;;;;;;;5065350;28;20333;-67
2022/01/13 04:58:58;;;;;;;3.33;1.70;;;;;;;;;;5063714;28;20207;-67
2022/01/13 05:01:45;;;;;;;3.53;2.10;;;;;;;;;;5064788;28;20204;-68
2022/01/13 05:04:32;;;;;;;4.13;2.20;;;;;;;;;;5066439;28;20261;-68
2022/01/13 05:07:19;;;;;;;2.57;2.17;;;;;;;;;;5062288;28;20296;-67
2022/01/13 05:10:06;;;;;;;3.93;2.17;;;;;;;;;;5064062;28;20707;-67
2022/01/13 05:12:56;;;;;;;3.70;2.40;;;;;;;;;;5065223;28;20663;-68
2022/01/13 05:15:44;;;;;;;3.60;1.97;;;;;;;;;;5064197;28;20204;-67
2022/01/13 05:18:44;;;;;;;3.43;1.90;;;;;;;;;;5064872;28;20746;-67
2022/01/13 05:21:46;;;;;;;2.40;1.90;;;;;;;;;;5059205;28;20573;-67
2022/01/13 05:24:33;;;;;;;3.07;2.00;;;;;;;;;;5066394;28;20214;-67
2022/01/13 05:27:21;;;;;;;4.73;2.37;;;;;;;;;;5065473;28;20671;-67
2022/01/13 05:30:11;;;;;;;4.07;2.23;;;;;;;;;;5065537;28;20231;-67
2022/01/13 05:32:58;;;;;;;3.83;2.03;;;;;;;;;;5064693;28;20212;-67
2022/01/13 05:35:45;;;;;;;3.87;2.07;;;;;;;;;;5065727;28;20207;-68
2022/01/13 05:38:32;;;;;;;3.47;1.87;;;;;;;;;;5064835;28;20261;-68
2022/01/13 05:41:19;;;;;;;3.10;2.17;;;;;;;;;;5064258;28;20294;-67
2022/01/13 05:44:06;;;;;;;3.00;1.90;;;;;;;;;;5064239;28;20281;-67
2022/01/13 05:46:54;;;;;;;2.83;1.97;;;;;;;;;;5065150;28;20215;-68
2022/01/13 05:49:43;;;;;;;2.00;1.50;;;;;;;;;;5059299;28;20224;-67
2022/01/13 05:52:30;;;;;;;3.57;2.10;;;;;;;;;;5065238;28;20246;-67
2022/01/13 05:55:18;;;;;;;3.27;2.17;;;;;;;;;;5062107;28;20222;-67
2022/01/13 05:58:05;;;;;;;3.83;2.40;;;;;;;;;;5060279;28;20299;-67
2022/01/13 06:00:52;;;;;;;3.50;2.37;;;;;;;;;;5063585;28;20619;-67
2022/01/13 06:03:40;;;;;;;3.23;1.77;;;;;;;;;;5065256;28;20571;-67
2022/01/13 06:06:27;;;;;;;3.63;1.87;;;;;;;;;;5063801;28;20288;-67
2022/01/13 06:09:14;;;;;;;3.00;1.97;;;;;;;;;;5062133;28;20357;-67
2022/01/13 06:12:03;;;;;;;2.90;1.83;;;;;;;;;;5066621;28;20361;-69
2022/01/13 06:14:50;;;;;;;2.97;2.03;;;;;;;;;;5064586;28;20208;-68
2022/01/13 06:17:38;;;;;;;3.90;2.17;;;;;;;;;;5065112;28;20251;-67
2022/01/13 06:20:26;;;;;;;2.90;2.20;;;;;;;;;;5063985;28;20250;-67
2022/01/13 06:23:15;;;;;;;3.50;1.93;;;;;;;;;;5064286;28;20300;-67
2022/01/13 06:26:04;;;;;;;5.70;2.40;;;;;;;;;;5065049;28;20215;-68
2022/01/13 06:28:51;;;;;;;3.97;1.93;;;;;;;;;;5062817;28;20234;-67
2022/01/13 06:31:38;;;;;;;2.60;1.73;;;;;;;;;;5064855;28;20537;-67
2022/01/13 06:34:25;;;;;;;2.13;1.60;;;;;;;;;;5064767;28;20247;-67
2022/01/13 06:37:13;;;;;;;3.90;1.90;;;;;;;;;;5062462;28;20249;-67
2022/01/13 06:40:02;;;;;;;3.07;1.70;;;;;;;;;;5066490;28;20277;-67
2022/01/13 06:42:49;;;;;;;3.73;1.90;;;;;;;;;;5060630;28;20211;-67
2022/01/13 06:45:36;;;;;;;3.10;1.90;;;;;;;;;;5064226;28;20237;-67
2022/01/13 06:48:23;;;;;;;3.43;2.20;;;;;;;;;;5063817;28;20211;-67
2022/01/13 06:51:10;;;;;;;2.83;1.97;;;;;;;;;;5060820;28;20274;-67
2022/01/13 06:53:58;;;;;;;2.20;1.87;;;;;;;;;;5065848;28;20202;-67
2022/01/13 06:56:45;;;;;;;1.87;1.67;;;;;;;;;;5061357;28;20310;-67
2022/01/13 06:59:32;;;;;;;3.50;2.10;;;;;;;;;;5059364;28;20256;-67
2022/01/13 07:02:19;;;;;;;4.60;2.30;;;;;;;;;;5062465;28;20199;-67
2022/01/13 07:05:08;;;;;;;3.00;1.70;;;;;;;;;;5061044;28;20250;-67
2022/01/13 07:07:55;;;;;;;3.67;1.80;;;;;;;;;;5065653;28;20211;-67
2022/01/13 07:10:45;;;;;;;4.07;2.33;;;;;;;;;;5064643;28;20254;-68
2022/01/13 07:13:33;;;;;;;2.80;1.90;;;;;;;;;;5062448;28;20557;-68
2022/01/13 07:16:21;;;;;;;2.07;1.70;;;;;;;;;;5063568;28;20298;-68
2022/01/13 07:19:10;;;;;;;4.37;2.03;;;;;;;;;;5063727;28;20301;-67
2022/01/13 07:21:58;;;;;;;2.83;1.90;;;;;;;;;;5064424;28;20676;-68
2022/01/13 07:24:45;;;;;;;2.00;1.70;;;;;;;;;;5065485;28;20267;-67
2022/01/13 07:27:33;;;;;;;3.00;2.20;;;;;;;;;;5061130;28;20283;-67
2022/01/13 07:30:20;;;;;;;2.97;1.67;;;;;;;;;;5063868;28;20301;-69
2022/01/13 07:33:07;;;;;;;3.00;1.90;;;;;;;;;;5061417;28;20247;-68
2022/01/13 07:35:54;;;;;;;1.80;1.57;;;;;;;;;;5064178;28;20294;-67
2022/01/13 07:38:41;;;;;;;2.17;1.77;;;;;;;;;;5063137;28;20257;-68
2022/01/13 07:41:28;;;;;;;2.97;1.80;;;;;;;;;;5059508;28;20242;-68
2022/01/13 07:44:18;;;;;;;2.83;1.80;;;;;;;;;;5060966;28;20225;-67
2022/01/13 07:47:05;;;;;;;3.37;1.90;;;;;;;;;;5061994;28;20289;-68
2022/01/13 07:49:52;;;;;;;2.43;1.47;;;;;;;;;;5062585;28;20363;-67
2022/01/13 07:52:39;;;;;;;3.03;1.87;;;;;;;;;;5063720;28;20308;-67
2022/01/13 07:55:27;;;;;;;5.07;1.80;;;;;;;;;;5062862;28;20758;-67
2022/01/13 07:58:14;;;;;;;1.80;1.57;;;;;;;;;;5062678;28;20211;-67
2022/01/13 08:01:02;;;;;;;2.43;1.77;;;;;;;;;;5061447;28;20286;-67
2022/01/13 08:03:49;;;;;;;3.13;1.73;;;;;;;;;;5062740;28;20211;-68
2022/01/13 08:06:36;;;;;;;2.20;1.60;;;;;;;;;;5064104;28;20345;-67
2022/01/13 08:09:23;;;;;;;3.47;1.93;;;;;;;;;;5063887;28;20247;-67
2022/01/13 08:12:11;;;;;;;2.90;1.80;;;;;;;;;;5061712;28;20276;-67
2022/01/13 08:14:58;;;;;;;2.30;1.70;;;;;;;;;;5062880;28;20757;-67
2022/01/13 08:20:52;;;;;;;2.77;1.87;;;;;;;;;;5061288;28;20302;-67
2022/01/13 08:23:39;;;;;;;3.37;2.10;;;;;;;;;;5059332;28;20318;-68
2022/01/13 08:26:27;;;;;;;2.77;1.97;;;;;;;;;;5062055;28;20297;-67
2022/01/13 08:29:14;;;;;;;2.40;2.00;;;;;;;;;;5058534;28;20717;-67
2022/01/13 08:32:01;;;;;;;2.03;1.53;;;;;;;;;;5063908;28;20235;-67
2022/01/13 08:34:50;;;;;;;2.60;1.60;;;;;;;;;;5062188;28;20326;-67
2022/01/13 08:37:37;;;;;;;3.37;1.73;;;;;;;;;;5062156;28;20213;-67
2022/01/13 08:40:24;;;;;;;3.20;1.90;;;;;;;;;;5062066;28;20215;-68
2022/01/13 08:43:11;;;;;;;2.27;1.70;;;;;;;;;;5063914;28;20718;-68
2022/01/13 08:45:58;;;;;;;2.60;2.10;;;;;;;;;;5064262;28;20223;-68
2022/01/13 08:48:45;;;;;;;2.87;1.80;;;;;;;;;;5062343;28;20230;-68
2022/01/13 08:51:33;;;;;;;3.00;2.00;;;;;;;;;;5065053;28;20667;-67
2022/01/13 08:54:21;;;;;;;2.53;2.00;;;;;;;;;;5063081;28;20240;-67
2022/01/13 08:57:08;;;;;;;2.07;1.60;;;;;;;;;;5066918;28;20202;-66
2022/01/13 08:59:55;;;;;;;3.03;2.03;;;;;;;;;;5068012;28;20211;-67
2022/01/13 09:02:43;;;;;;;3.03;1.93;;;;;;;;;;5065744;28;20249;-68
2022/01/13 09:05:30;;;;;;;2.47;1.70;;;;;;;;;;5068258;28;20225;-67
2022/01/13 09:08:18;;;;;;;2.57;1.90;;;;;;;;;;5068162;28;20617;-67
2022/01/13 09:11:05;;;;;;;2.80;1.90;;;;;;;;;;5065405;28;20315;-68
2022/01/13 09:13:56;;;;;;;2.97;2.00;;;;;;;;;;5065454;28;20212;-67
2022/01/13 09:16:47;;;;;;;2.43;1.77;;;;;;;;;;5066544;28;20210;-68
2022/01/13 09:19:34;;;;;;;3.57;1.83;;;;;;;;;;5067222;28;20275;-67
2022/01/13 09:22:21;;;;;;;2.83;1.70;;;;;;;;;;5064811;28;20211;-67
2022/01/13 09:25:10;;;;;;;2.20;1.57;;;;;;;;;;5064816;28;20204;-67
2022/01/13 09:27:57;;;;;;;3.53;2.03;;;;;;;;;;5064494;28;20207;-68
2022/01/13 09:30:44;;;;;;;2.77;1.77;;;;;;;;;;5063707;28;20254;-68
2022/01/13 09:33:31;;;;;;;3.37;2.03;;;;;;;;;;5065684;28;20209;-68
2022/01/13 09:36:18;;;;;;;2.73;1.73;;;;;;;;;;5063768;28;20282;-67
2022/01/13 09:39:07;;;;;;;2.73;1.80;;;;;;;;;;5064986;28;20208;-67
2022/01/13 09:41:57;;;;;;;2.53;1.80;;;;;;;;;;5063998;28;20274;-68
2022/01/13 09:44:47;;;;;;;3.77;1.93;;;;;;;;;;5062710;28;20247;-68
2022/01/13 09:47:35;;;;;;;2.20;1.70;;;;;;;;;;5067857;28;20717;-67
2022/01/13 09:50:22;;;;;;;2.40;1.90;;;;;;;;;;5063558;28;20310;-67
2022/01/13 09:53:09;;;;;;;2.23;1.50;;;;;;;;;;5066027;28;20281;-67
2022/01/13 09:55:56;;;;;;;2.97;1.90;;;;;;;;;;5065266;28;20898;-67
2022/01/13 09:58:44;;;;;;;2.57;1.63;;;;;;;;;;5065185;28;20225;-68
2022/01/13 10:01:31;;;;;;;2.10;1.63;;;;;;;;;;5065548;28;20727;-67
2022/01/13 10:04:19;;;;;;;2.77;1.90;;;;;;;;;;5064241;28;20703;-67
2022/01/13 10:07:06;;;;;;;3.20;1.70;;;;;;;;;;5066350;28;20218;-67
2022/01/13 10:09:54;;;;;;;2.73;1.70;;;;;;;;;;5063557;28;20377;-67
2022/01/13 10:12:43;;;;;;;1.93;1.63;;;;;;;;;;5061940;28;20582;-67
2022/01/13 10:18:47;;;;;;;2.80;1.90;;;;;;;;;;5061000;28;20207;-67
2022/01/13 10:21:34;;;;;;;1.80;1.30;;;;;;;;;;5063689;28;20648;-67
2022/01/13 10:24:26;;;;;;;4.73;1.67;;;;;;;;;;5065070;28;20246;-68
2022/01/13 10:27:15;;;;;;;2.47;1.63;;;;;;;;;;5063922;28;20624;-67
2022/01/13 10:30:05;;;;;;;3.00;2.07;;;;;;;;;;5065534;28;20699;-66
2022/01/13 10:32:55;;;;;;;2.33;1.87;;;;;;;;;;5062121;28;20219;-67
2022/01/13 10:35:41;;;;;;;2.33;1.67;;;;;;;;;;5064552;28;20602;-67
2022/01/13 10:38:28;;;;;;;2.60;1.60;;;;;;;;;;5063633;28;20243;-69
2022/01/13 10:41:31;;;;;;;3.37;1.97;;;;;;;;;;5061190;28;20235;-68
2022/01/13 10:44:21;;;;;;;3.07;1.73;;;;;;;;;;5062687;28;20318;-67
2022/01/13 10:47:07;;;;;;;3.10;1.67;;;;;;;;;;5063391;28;20218;-67
2022/01/13 10:50:00;;;;;;;3.70;1.90;;;;;;;;;;5063103;28;20296;-67
2022/01/13 10:52:49;;;;;;;3.23;2.00;;;;;;;;;;5063011;28;20212;-67
2022/01/13 10:55:39;;;;;;;2.00;1.80;;;;;;;;;;5062873;28;20208;-67
2022/01/13 10:58:28;;;;;;;3.67;1.83;;;;;;;;;;5061525;28;20203;-67
2022/01/13 11:01:15;;;;;;;3.33;2.07;;;;;;;;;;5065350;28;20287;-68
2022/01/13 11:04:14;;;;;;;3.27;1.97;;;;;;;;;;5063338;28;20227;-67
2022/01/13 11:07:16;;;;;;;2.90;1.37;;;;;;;;;;5061288;28;20342;-67
2022/01/13 11:10:06;;;;;;;2.23;1.63;;;;;;;;;;5064859;28;20684;-67
2022/01/13 11:12:58;;;;;;;2.90;2.10;;;;;;;;;;5062567;28;20688;-67
2022/01/13 11:15:50;;;;;;;2.93;1.80;;;;;;;;;;5064694;28;20203;-67
2022/01/13 11:18:37;;;;;;;3.57;2.10;;;;;;;;;;5061338;28;20319;-67
2022/01/13 11:21:25;;;;;;;2.70;1.80;;;;;;;;;;5062372;28;20274;-67
2022/01/13 11:24:14;;;;;;;2.50;1.77;;;;;;;;;;5063028;28;20274;-67
2022/01/13 11:27:03;;;;;;;3.63;1.70;;;;;;;;;;5063550;28;20250;-67
2022/01/13 11:29:50;;;;;;;3.00;1.90;;;;;;;;;;5061188;28;20207;-67
2022/01/13 11:32:39;;;;;;;2.43;1.87;;;;;;;;;;5063167;28;20298;-67
2022/01/13 11:35:29;;;;;;;3.40;2.00;;;;;;;;;;5063218;28;20315;-67
2022/01/13 11:38:18;;;;;;;2.47;1.90;;;;;;;;;;5061649;28;20203;-67
2022/01/13 11:41:08;;;;;;;3.53;1.80;;;;;;;;;;5064646;28;20286;-69
2022/01/13 11:44:12;;;;;;;2.87;2.13;;;;;;;;;;5061369;28;20608;-68
2022/01/13 11:46:59;;;;;;;3.67;1.77;;;;;;;;;;5058427;28;20260;-67
2022/01/13 11:49:57;;;;;;;3.80;2.10;;;;;;;;;;5062598;28;20665;-67
2022/01/13 11:52:50;;;;;;;2.47;2.00;;;;;;;;;;5063367;28;20796;-67
2022/01/13 11:55:41;;;;;;;4.73;1.90;;;;;;;;;;5061771;28;20261;-67
2022/01/13 11:58:33;;;;;;;3.20;1.90;;;;;;;;;;5059989;28;20248;-68
2022/01/13 12:01:22;;;;;;;2.37;1.90;;;;;;;;;;5060454;28;20207;-67
2022/01/13 12:04:09;;;;;;;3.53;2.03;;;;;;;;;;5060403;28;20259;-67
2022/01/13 12:06:56;;;;;;;2.87;1.90;;;;;;;;;;5061496;28;20582;-67
2022/01/13 12:09:43;;;;;;;1.80;1.50;;;;;;;;;;5065198;28;20312;-67
2022/01/13 12:12:32;;;;;;;2.73;1.93;;;;;;;;;;5060814;28;20218;-67
2022/01/13 12:15:22;;;;;;;1.97;1.80;;;;;;;;;;5058422;28;20208;-67
2022/01/13 12:18:09;;;;;;;2.17;1.77;;;;;;;;;;5064695;28;20340;-67
2022/01/13 12:21:10;;;;;;;3.10;2.03;;;;;;;;;;5063138;28;20209;-67
2022/01/13 12:23:59;;;;;;;2.70;1.77;;;;;;;;;;5064938;28;20218;-67
2022/01/13 12:26:58;;;;;;;2.90;2.13;;;;;;;;;;5062028;28;20239;-67
2022/01/13 12:29:47;;;;;;;2.33;1.50;;;;;;;;;;5065744;28;20215;-67
2022/01/13 12:32:41;;;;;;;2.67;1.70;;;;;;;;;;5064717;28;20334;-67
2022/01/13 12:35:42;;;;;;;2.30;1.90;;;;;;;;;;5067613;28;20283;-67
2022/01/13 12:38:29;;;;;;;1.70;1.50;;;;;;;;;;5063904;28;20229;-68
2022/01/13 12:41:26;;;;;;;1.97;1.43;;;;;;;;;;5063886;28;20290;-67
2022/01/13 12:45:27;;;;;;;2.13;1.80;;;;;;;;;;5066173;28;20799;-67
2022/01/13 12:47:23;;;;;;;2.33;1.57;;;;;;;;;;5065742;28;20260;-68
2022/01/13 12:50:21;;;;;;;1.70;1.50;;;;;;;;;;5065515;28;20215;-67
2022/01/13 12:53:12;;;;;;;3.23;1.77;;;;;;;;;;5061592;28;20290;-67
2022/01/13 12:56:01;;;;;;;3.00;1.93;;;;;;;;;;5063464;28;20235;-67
2022/01/13 12:58:50;;;;;;;2.50;1.60;;;;;;;;;;5065383;28;20651;-67
2022/01/13 13:01:38;;;;;;;2.60;1.87;;;;;;;;;;5065012;28;20847;-67
2022/01/13 13:04:25;;;;;;;2.53;1.80;;;;;;;;;;5066266;28;20263;-67
2022/01/13 13:07:13;;;;;;;2.83;1.80;;;;;;;;;;5060281;28;20519;-67
2022/01/13 13:10:04;;;;;;;2.70;1.70;;;;;;;;;;5063962;28;20714;-67
2022/01/13 13:12:52;;;;;;;2.77;1.70;;;;;;;;;;5062713;28;20314;-67
2022/01/13 13:15:40;;;;;;;3.00;1.83;;;;;;;;;;5062544;28;20214;-67
2022/01/13 13:18:29;;;;;;;2.33;1.70;;;;;;;;;;5063496;28;20218;-67
2022/01/13 13:21:16;;;;;;;1.50;1.40;;;;;;;;;;5066551;28;20235;-67
2022/01/13 13:24:05;;;;;;;2.50;1.67;;;;;;;;;;5064515;28;20306;-67
2022/01/13 13:26:52;;;;;;;2.60;1.83;;;;;;;;;;5063368;28;20216;-67
2022/01/13 13:29:39;;;;;;;2.27;1.60;;;;;;;;;;5066018;28;20214;-67
2022/01/13 13:32:26;;;;;;;2.17;1.47;;;;;;;;;;5065397;28;20256;-67
2022/01/13 13:35:14;;;;;;;2.43;1.40;;;;;;;;;;5064149;28;20710;-67
2022/01/13 13:38:02;;;;;;;2.43;1.80;;;;;;;;;;5067502;28;20209;-67
2022/01/13 13:40:50;;;;;;;2.30;1.60;;;;;;;;;;5066905;28;20235;-68
2022/01/13 13:43:37;;;;;;;3.47;1.73;;;;;;;;;;5064280;28;20345;-67
2022/01/13 13:46:24;;;;;;;1.90;1.67;;;;;;;;;;5063010;28;20333;-67
2022/01/13 13:49:12;;;;;;;2.37;1.70;;;;;;;;;;5065155;28;20353;-67
2022/01/13 13:52:01;;;;;;;2.50;1.70;;;;;;;;;;5063799;28;20311;-67
2022/01/13 13:54:52;;;;;;;1.80;1.57;;;;;;;;;;5063278;28;20209;-67
2022/01/13 13:57:41;;;;;;;2.13;1.67;;;;;;;;;;5064245;28;20216;-67
2022/01/13 14:00:28;;;;;;;1.47;1.27;;;;;;;;;;5066257;28;20315;-67
2022/01/13 14:03:22;;;;;;;2.57;1.60;;;;;;;;;;5061756;28;20200;-67
2022/01/13 14:06:10;;;;;;;2.63;1.43;;;;;;;;;;5066377;28;20679;-67
2022/01/13 14:08:57;;;;;;;3.07;1.50;;;;;;;;;;5061956;28;20331;-67
2022/01/13 14:11:46;;;;;;;1.30;1.20;;;;;;;;;;5065942;28;20219;-67
2022/01/13 14:14:38;;;;;;;2.00;1.53;;;;;;;;;;5063316;28;20284;-67
2022/01/13 14:17:34;;;;;;;1.97;1.60;;;;;;;;;;5061133;28;20223;-68
2022/01/13 14:20:23;;;;;;;1.73;1.50;;;;;;;;;;5065274;28;20691;-67
2022/01/13 14:23:15;;;;;;;2.03;1.77;;;;;;;;;;5061015;28;20435;-67
2022/01/13 14:26:05;;;;;;;2.33;1.80;;;;;;;;;;5065845;28;20216;-67
2022/01/13 14:28:53;;;;;;;2.63;1.70;;;;;;;;;;5064979;28;20214;-67
2022/01/13 14:31:41;;;;;;;1.73;1.33;;;;;;;;;;5063075;28;20264;-68
2022/01/13 14:34:28;;;;;;;2.77;1.50;;;;;;;;;;5066164;28;20211;-68
2022/01/13 14:37:16;;;;;;;1.40;1.30;;;;;;;;;;5063017;28;20295;-68
2022/01/13 14:40:11;;;;;;;3.50;1.70;;;;;;;;;;5063946;28;20203;-67
2022/01/13 14:43:07;;;;;;;2.30;1.40;;;;;;;;;;5062218;28;20663;-67
2022/01/13 14:46:05;;;;;;;3.67;1.83;;;;;;;;;;5062330;28;20203;-67
2022/01/13 14:48:54;;;;;;;1.47;1.33;;;;;;;;;;5061575;28;20240;-67
2022/01/13 14:51:44;;;;;;;1.73;1.50;;;;;;;;;;5064185;28;20756;-67
2022/01/13 14:54:31;;;;;;;1.90;1.50;;;;;;;;;;5063035;28;20293;-67
2022/01/13 14:57:18;;;;;;;2.23;1.30;;;;;;;;;;5063759;28;20211;-67
2022/01/13 15:00:07;;;;;;;2.67;1.47;;;;;;;;;;5062167;28;20298;-67
2022/01/13 15:02:53;;;;;;;1.47;1.37;;;;;;;;;;5063625;28;20203;-67
2022/01/13 15:05:42;;;;;;;2.20;1.13;;;;;;;;;;5063982;28;20708;-68
2022/01/13 15:08:30;;;;;;;2.93;1.57;;;;;;;;;;5064501;28;20291;-67
2022/01/13 15:11:18;;;;;;;2.70;1.50;;;;;;;;;;5061507;28;20236;-67
2022/01/13 15:14:05;;;;;;;1.87;1.40;;;;;;;;;;5065981;28;20288;-67
2022/01/13 15:16:55;;;;;;;1.60;1.43;;;;;;;;;;5065913;28;20290;-67
2022/01/13 15:19:47;;;;;;;2.13;1.33;;;;;;;;;;5064451;28;20208;-67
2022/01/13 15:22:35;;;;;;;1.67;1.57;;;;;;;;;;5065800;28;20252;-68
2022/01/13 15:25:23;;;;;;;4.13;2.03;;;;;;;;;;5062818;28;20211;-67
2022/01/13 15:28:09;;;;;;;2.47;1.63;;;;;;;;;;5059655;28;20203;-67
2022/01/13 15:30:56;;;;;;;2.23;1.60;;;;;;;;;;5062054;28;20239;-67
2022/01/13 15:33:43;;;;;;;2.23;1.50;;;;;;;;;;5064188;28;20265;-67
2022/01/13 15:36:30;;;;;;;2.87;1.73;;;;;;;;;;5063643;28;20257;-67
2022/01/13 15:39:19;;;;;;;2.17;1.43;;;;;;;;;;5062575;28;20211;-68
2022/01/13 15:42:06;;;;;;;1.20;1.10;;;;;;;;;;5060767;28;20361;-68
2022/01/13 15:44:53;;;;;;;2.67;1.47;;;;;;;;;;5062433;28;20207;-67
2022/01/13 15:47:41;;;;;;;2.47;1.37;;;;;;;;;;5061201;28;20659;-67
2022/01/13 15:50:28;;;;;;;4.17;1.53;;;;;;;;;;5062579;28;20205;-68
2022/01/13 15:53:14;;;;;;;1.63;1.37;;;;;;;;;;5063561;28;20289;-67
2022/01/13 15:56:03;;;;;;;2.27;1.87;;;;;;;;;;5064431;28;20344;-67
2022/01/13 15:58:50;;;;;;;2.03;1.60;;;;;;;;;;5062552;28;20512;-67
2022/01/13 16:01:37;;;;;;;1.53;1.43;;;;;;;;;;5059194;28;20671;-67
2022/01/13 16:04:24;;;;;;;2.43;1.37;;;;;;;;;;5067957;28;20327;-67
2022/01/13 16:07:11;;;;;;;2.13;1.40;;;;;;;;;;5065153;28;20265;-67
2022/01/13 16:09:58;;;;;;;2.17;1.50;;;;;;;;;;5064663;28;20644;-67
2022/01/13 16:12:47;;;;;;;1.97;1.43;;;;;;;;;;5066916;28;20746;-67
2022/01/13 16:15:34;;;;;;;3.00;1.67;;;;;;;;;;5067090;28;20588;-68
2022/01/13 16:18:21;;;;;;;2.23;1.60;;;;;;;;;;5067037;28;20233;-67
2022/01/13 16:21:08;;;;;;;2.13;1.60;;;;;;;;;;5066536;28;20743;-67
2022/01/13 16:23:55;;;;;;;2.43;1.30;;;;;;;;;;5066154;28;20242;-67
2022/01/13 16:26:42;;;;;;;2.23;1.40;;;;;;;;;;5067989;28;20252;-67
2022/01/13 16:29:53;;;;;;;2.70;1.60;;;;;;;;;;5065649;28;20289;-67
2022/01/13 16:32:43;;;;;;;3.47;1.37;;;;;;;;;;5065375;28;20333;-67
2022/01/13 16:35:30;;;;;;;1.60;1.50;;;;;;;;;;5065486;28;20219;-67
2022/01/13 16:38:17;;;;;;;2.67;1.40;;;;;;;;;;5064565;28;20211;-67
2022/01/13 16:41:04;;;;;;;2.37;1.63;;;;;;;;;;5066777;28;20214;-68
2022/01/13 16:43:51;;;;;;;2.53;1.70;;;;;;;;;;5067337;28;20299;-68
2022/01/13 16:46:40;;;;;;;2.07;1.67;;;;;;;;;;5066888;28;20208;-67
2022/01/13 16:49:28;;;;;;;2.83;1.57;;;;;;;;;;5065001;28;20212;-68
2022/01/13 16:52:17;;;;;;;1.50;1.37;;;;;;;;;;5064500;28;20227;-68
2022/01/13 16:55:05;;;;;;;2.07;1.57;;;;;;;;;;5066010;28;20671;-67
2022/01/13 16:57:54;;;;;;;2.43;1.20;;;;;;;;;;5062661;28;20207;-68
2022/01/13 17:00:41;;;;;;;2.00;1.40;;;;;;;;;;5064549;28;20612;-67
2022/01/13 17:03:29;;;;;;;2.20;1.47;;;;;;;;;;5063586;28;20693;-69
2022/01/13 17:06:16;;;;;;;1.87;1.50;;;;;;;;;;5062169;28;20238;-68
2022/01/13 17:09:04;;;;;;;1.97;1.77;;;;;;;;;;5064793;28;20291;-67
2022/01/13 17:11:51;;;;;;;2.30;1.50;;;;;;;;;;5060603;28;20231;-67